Aviation Digital Data Service (ADDS)

Output produced by METARs form (0104 UTC 17 July 2019)
found at http://www.aviationweather.gov/metar/data/
 
GMAD 170100Z 00000KT CAVOK 19/16 Q1013 NOSIG
TAF GMAD 162300Z 1700/1806 18006KT 9999 SCT016 
     BECMG 1704/1706 BKN013 
     BECMG 1710/1712 26012KT CAVOK
       
GMMC 162000Z 02010KT 9999 SCT016 BKN026 21/16 Q1016
GMFO 170100Z 01008KT 9999 FEW030 SCT100 22/19 Q1014 NOSIG
TAF GMFO 162300Z 1700/1806 36008KT CAVOK 
     BECMG 1714/1718 36017KT SCT033
       
GMMW 170100Z 28001KT 8000 FEW026 20/13 Q1014 NOSIG
TAF GMMW 162300Z 1700/1806 22003KT 8000 FEW026
       
GMFM 170100Z 18003KT CAVOK 18/17 Q1017 NOSIG
TAF GMFM 162300Z 1700/1806 VRB02KT CAVOK 
     PROB30 
     TEMPO 1701/1710 3000 BR BKN010 
     BECMG 1715/1718 30010KT 
     BECMG 1720/1724 28004KT
       
GMTA 170100Z 00000KT 8000 NSC 20/18 Q1014 NOSIG
TAF GMTA 162300Z 1700/1806 16003KT CAVOK
       
TAF GMMI 162300Z 1700/1806 02018KT 8000 NSC
       
GMTT 170030Z 24010KT 8000 SCT013 22/17 Q1015
TAF GMTT 162300Z 1700/1806 24009KT 8000 FEW013 SCT016 
     TEMPO 1701/1706 4000 BR
       
GMMX 170100Z VRB02KT CAVOK 24/14 Q1016 NOSIG
TAF GMMX 162300Z 1700/1806 02006KT 8000 NSC 
     TEMPO 1716/1721 34014KT
       
GMMN 170100Z 35009KT 9999 BKN016 20/18 Q1017 NOSIG
TAF GMMN 162300Z 1700/1806 02007KT 9999 BKN016 
     PROB30 1703/1707 3000 BR SCT004 BKN015 
     TEMPO 1713/1718 34015G27KT
       
GMFK 170100Z 35008KT 330V030 CAVOK 35/M00 Q1017 NOSIG
TAF GMFK 162300Z 1700/1806 35015KT CAVOK 
     BECMG 1704/1707 05007KT 
     TEMPO 1721/1724 36015G26KT
       
GMMZ 170100Z 28003KT 8000 NSC 29/M03 Q1018 NOSIG
TAF GMMZ 162300Z 1700/1806 26008KT 8000 NSC 
     BECMG 1802/1806 VRB02KT 
     TEMPO 1715/1720 32014KT
       
GMFF 170100Z 30006KT 9999 FEW030 19/16 Q1018 NOSIG
TAF GMFF 162300Z 1700/1806 20006KT 9999 FEW03 
     PROB30 
     TEMPO 1704/1708 3000 BR OVC005 
     BECMG 1710/1712 32012KT CAVOK
       
GMME 170100Z 29006KT 260V340 5000 SCT016 BKN020 20/16 Q1016 NOSIG
TAF GMME 161700Z 1618/1800 32008KT 8000 SCT020 
     PROB40 
     TEMPO 1700/1706 00000KT 3000 BR BKN010 
     BECMG 1706/1710 36010KT 9999 SCT016 SCT020
       
GMTN 170100Z 35003KT 6000 NSC 20/16 Q1014 NOSIG